Terminal Aerodrome Forecast
Issued by NWS Cleveland, OH

Home | Current Version | Previous Version | Graphics & Text | Print | Product List | Glossary On
Versions: 1 2 3 4 5 6 7 8 9 10 11 12 13 14 15
000
FTUS41 KCLE 220500
TAFCAK
TAF
KCAK 220537Z 2206/2306 27014G22KT 6SM -SHRA SCT025 OVC050
      TEMPO 2208/2212 5SM -SHRA OVC025
     FM221600 27020G30KT P6SM OVC040=

USA.gov is the U.S. government's official web portal to all federal, state and local government web resources and services.